Time;durP1;ratioP1;P1;durP2;ratioP2;P2;SDS_P1;SDS_P2;PMS_P1;PMS_P2;Temp;Humidity;BMP_temperature;BMP_pressure;BME280_temperature;BME280_humidity;BME280_pressure;Samples;Min_cycle;Max_cycle;Signal;HPM_P1;HPM_P2
2021/12/16 00:01:51;;;;;;;11.60;7.40;;;7.00;93.90;;;;;;5065113;28;20520;-80
2021/12/16 00:07:12;;;;;;;14.98;8.68;;;7.00;93.90;;;;;;5066733;28;20040;-81
2021/12/16 00:09:54;;;;;;;14.85;7.72;;;7.00;94.00;;;;;;5074065;28;20032;-80
2021/12/16 00:31:45;;;;;;;14.02;8.32;;;7.00;94.00;;;;;;5048863;28;20469;-80
2021/12/16 00:34:11;;;;;;;12.13;7.80;;;7.00;94.00;;;;;;5036694;28;20043;-80
2021/12/16 00:36:39;;;;;;;13.50;7.50;;;7.00;94.00;;;;;;5050744;28;20123;-80
2021/12/16 00:39:10;;;;;;;12.88;7.57;;;7.00;94.00;;;;;;5067185;28;20025;-80
2021/12/16 00:41:40;;;;;;;10.52;7.38;;;7.00;94.00;;;;;;5059677;28;20322;-80
2021/12/16 00:44:21;;;;;;;13.77;7.60;;;7.00;94.00;;;;;;5057843;28;20511;-80
2021/12/16 00:47:13;;;;;;;12.80;8.00;;;7.00;94.00;;;;;;5074029;28;20082;-80
2021/12/16 00:49:44;;;;;;;15.90;7.72;;;7.00;94.00;;;;;;5030605;28;20171;-80
2021/12/16 00:55:10;;;;;;;12.65;7.47;;;7.00;94.40;;;;;;5035419;28;20055;-80
2021/12/16 00:57:36;;;;;;;18.10;6.38;;;7.00;94.00;;;;;;5042100;28;20036;-80
2021/12/16 01:00:04;;;;;;;8.60;6.15;;;6.90;94.00;;;;;;5045335;28;20070;-80
2021/12/16 01:02:54;;;;;;;11.63;7.18;;;6.90;94.00;;;;;;5056633;28;20402;-80
2021/12/16 01:51:20;;;;;;;12.18;7.53;;;6.80;94.00;;;;;;5058997;28;20131;-80
2021/12/16 01:56:47;;;;;;;12.32;7.90;;;6.80;94.00;;;;;;5022457;28;20075;-80
2021/12/16 01:59:18;;;;;;;12.10;7.20;;;6.80;94.00;;;;;;5043935;28;20036;-80
2021/12/16 02:01:44;;;;;;;13.55;7.63;;;6.80;94.00;;;;;;5063000;28;20090;-80
2021/12/16 02:04:28;;;;;;;12.77;7.35;;;6.80;94.00;;;;;;5064199;28;20027;-80
2021/12/16 02:09:26;;;;;;;13.60;8.00;;;6.80;94.00;;;;;;5041802;28;20453;-80
2021/12/16 02:12:00;;;;;;;15.60;7.38;;;6.80;94.00;;;;;;5052573;28;20036;-80
2021/12/16 02:28:25;;;;;;;12.70;7.45;;;6.80;94.00;;;;;;5051538;28;20132;-80
2021/12/16 02:33:49;;;;;;;;;;;6.80;94.00;;;;;;5040126;28;20115;-80
2021/12/16 02:36:25;;;;;;;12.65;7.47;;;6.70;94.00;;;;;;5058427;28;19936;-80
2021/12/16 02:39:03;;;;;;;11.95;7.22;;;6.70;94.00;;;;;;5047786;28;20033;-80
2021/12/16 02:41:29;;;;;;;10.90;6.38;;;6.70;94.00;;;;;;5013768;28;20100;-80
2021/12/16 02:44:23;;;;;;;14.05;7.55;;;6.70;94.00;;;;;;5007366;28;20056;-80
2021/12/16 02:49:26;;;;;;;11.25;7.00;;;6.70;94.00;;;;;;5020999;28;20975;-80
2021/12/16 02:51:52;;;;;;;10.85;6.43;;;6.70;94.00;;;;;;5006413;28;20111;-80
2021/12/16 02:54:17;;;;;;;11.57;7.38;;;6.70;94.10;;;;;;5042526;28;20494;-80
2021/12/16 02:56:43;;;;;;;12.93;7.40;;;6.70;94.10;;;;;;5033692;28;20441;-80
2021/12/16 02:59:09;;;;;;;11.93;6.75;;;6.70;94.10;;;;;;5055501;28;20099;-80
2021/12/16 03:01:36;;;;;;;11.73;7.03;;;6.70;94.10;;;;;;5040653;28;20040;-80
2021/12/16 03:04:04;;;;;;;12.70;6.80;;;6.70;94.10;;;;;;5034718;28;20055;-80
2021/12/16 03:06:31;;;;;;;10.48;6.35;;;6.70;94.10;;;;;;5065911;28;20087;-80
2021/12/16 03:08:57;;;;;;;11.70;6.72;;;6.70;94.10;;;;;;5026801;28;20126;-80
2021/12/16 03:12:09;;;;;;;11.07;6.82;;;6.70;94.10;;;;;;5013198;28;20128;-80
2021/12/16 03:14:41;;;;;;;13.98;7.68;;;6.70;94.10;;;;;;5060969;28;20132;-80
2021/12/16 03:17:19;;;;;;;11.10;7.00;;;6.60;94.20;;;;;;5039316;28;20040;-80
2021/12/16 03:19:57;;;;;;;11.93;7.45;;;6.70;94.10;;;;;;5008197;28;20451;-80
2021/12/16 03:22:47;;;;;;;12.23;6.88;;;6.60;94.00;;;;;;5002925;28;20523;-80
2021/12/16 03:25:51;;;;;;;12.10;6.38;;;6.60;94.10;;;;;;5052941;28;20052;-80
2021/12/16 03:33:57;;;;;;;11.97;7.63;;;6.60;94.10;;;;;;5038269;28;20061;-80
2021/12/16 03:38:48;;;;;;;12.82;7.05;;;6.60;94.10;;;;;;5073105;28;20029;-80
2021/12/16 03:41:14;;;;;;;10.85;7.28;;;6.60;94.10;;;;;;5054644;28;20031;-80
2021/12/16 03:43:40;;;;;;;12.43;6.90;;;6.60;94.10;;;;;;5028787;28;20056;-80
2021/12/16 03:48:44;;;;;;;12.93;7.75;;;6.60;94.10;;;;;;5042394;28;20033;-80
2021/12/16 03:51:15;;;;;;;12.00;7.60;;;6.60;94.10;;;;;;5041517;28;20064;-80
2021/12/16 03:53:42;;;;;;;;;;;6.60;94.10;;;;;;5050393;28;20045;-80
2021/12/16 03:56:08;;;;;;;11.57;7.05;;;6.60;94.10;;;;;;5025776;28;19916;-79
2021/12/16 03:58:34;;;;;;;11.02;7.15;;;6.60;94.00;;;;;;5037944;28;20085;-80
2021/12/16 04:01:01;;;;;;;10.52;6.40;;;6.60;94.10;;;;;;5018805;28;20124;-80
2021/12/16 04:03:27;;;;;;;14.65;7.70;;;6.60;94.10;;;;;;5044988;28;20029;-80
2021/12/16 04:05:52;;;;;;;15.15;7.68;;;6.60;94.10;;;;;;5065001;28;20025;-80
2021/12/16 04:08:18;;;;;;;16.80;8.18;;;6.60;94.10;;;;;;5043203;28;20033;-80
2021/12/16 04:10:53;;;;;;;13.73;6.95;;;6.50;94.10;;;;;;5030634;28;20028;-80
2021/12/16 04:13:19;;;;;;;13.45;7.35;;;6.60;94.10;;;;;;5053681;28;20028;-80
2021/12/16 04:15:45;;;;;;;12.60;7.75;;;6.50;94.10;;;;;;5055697;28;20044;-80
2021/12/16 04:18:11;;;;;;;12.57;7.25;;;6.60;94.10;;;;;;5071469;28;20395;-80
2021/12/16 04:20:36;;;;;;;13.55;7.15;;;6.50;94.10;;;;;;5052879;28;20041;-80
2021/12/16 04:23:05;;;;;;;13.52;7.55;;;6.50;94.10;;;;;;5074713;28;20086;-80
2021/12/16 04:25:33;;;;;;;16.42;7.22;;;6.50;94.10;;;;;;5029912;28;20029;-80
2021/12/16 04:28:00;;;;;;;17.90;7.13;;;6.50;94.10;;;;;;5031705;28;20041;-80
2021/12/16 04:30:27;;;;;;;13.45;7.70;;;6.50;94.10;;;;;;5046616;28;20131;-80
2021/12/16 04:32:52;;;;;;;12.77;7.13;;;6.50;94.10;;;;;;5070833;28;20043;-80
2021/12/16 04:35:18;;;;;;;12.70;7.25;;;6.50;94.20;;;;;;5044358;28;20028;-80
2021/12/16 04:37:44;;;;;;;14.43;7.22;;;6.60;94.20;;;;;;5063322;28;20057;-80
2021/12/16 04:40:10;;;;;;;13.10;7.63;;;6.50;94.10;;;;;;5064073;28;20063;-80
2021/12/16 04:42:37;;;;;;;13.50;7.70;;;6.50;94.10;;;;;;5039404;28;20111;-80
2021/12/16 04:45:06;;;;;;;13.65;8.07;;;6.50;94.20;;;;;;5038184;28;20041;-80
2021/12/16 04:47:32;;;;;;;17.08;8.32;;;6.50;94.20;;;;;;5027058;28;20525;-79
2021/12/16 04:49:59;;;;;;;12.75;7.43;;;6.50;94.20;;;;;;5046174;28;20225;-80
2021/12/16 04:52:25;;;;;;;12.52;7.43;;;6.50;94.20;;;;;;5051488;28;20094;-80
2021/12/16 04:54:50;;;;;;;11.68;7.28;;;6.50;94.20;;;;;;5058577;28;20033;-80
2021/12/16 04:57:16;;;;;;;13.13;7.53;;;6.50;94.20;;;;;;5040060;28;20415;-80
2021/12/16 04:59:41;;;;;;;13.52;7.80;;;6.50;94.20;;;;;;5055109;28;20445;-79
2021/12/16 05:02:09;;;;;;;13.70;7.95;;;6.50;94.10;;;;;;5023321;28;20532;-80
2021/12/16 05:04:35;;;;;;;13.27;8.10;;;6.50;94.20;;;;;;5043676;28;20033;-80
2021/12/16 05:07:00;;;;;;;13.63;7.68;;;6.50;94.20;;;;;;5023779;28;20179;-79
2021/12/16 05:12:18;;;;;;;13.95;7.57;;;6.50;94.20;;;;;;5055416;28;20036;-79
2021/12/16 05:14:44;;;;;;;12.70;7.47;;;6.50;94.20;;;;;;5045378;28;20553;-79
2021/12/16 05:17:26;;;;;;;15.60;8.18;;;6.50;94.20;;;;;;5052232;28;20045;-79
2021/12/16 05:19:52;;;;;;;14.70;7.45;;;6.50;94.20;;;;;;5026798;28;20402;-79
2021/12/16 05:25:05;;;;;;;12.95;7.70;;;6.50;94.20;;;;;;5032687;28;20163;-81
2021/12/16 05:27:31;;;;;;;13.85;8.07;;;6.50;94.20;;;;;;5050774;28;20025;-80
2021/12/16 05:29:56;;;;;;;12.07;7.50;;;6.50;94.20;;;;;;5038733;28;20402;-80
2021/12/16 05:32:23;;;;;;;12.98;7.57;;;6.40;94.20;;;;;;5048502;28;20440;-81
2021/12/16 05:34:49;;;;;;;13.73;8.05;;;6.50;94.20;;;;;;5050957;28;20032;-81
2021/12/16 05:37:14;;;;;;;16.15;8.13;;;6.40;94.20;;;;;;5059480;28;20043;-81
2021/12/16 05:39:40;;;;;;;12.73;8.13;;;6.40;94.20;;;;;;5026723;28;20411;-81
2021/12/16 05:42:06;;;;;;;14.52;7.85;;;6.40;94.20;;;;;;5047239;28;20039;-81
2021/12/16 05:44:31;;;;;;;14.18;6.78;;;6.40;94.20;;;;;;5043361;28;20395;-81
2021/12/16 05:46:57;;;;;;;12.68;7.25;;;6.40;94.20;;;;;;5051584;28;20040;-81
2021/12/16 05:49:22;;;;;;;14.90;7.20;;;6.40;94.20;;;;;;5012812;28;20051;-81
2021/12/16 05:51:51;;;;;;;11.88;7.25;;;6.40;94.20;;;;;;5041005;28;20423;-81
2021/12/16 05:54:17;;;;;;;12.50;7.63;;;6.40;94.20;;;;;;5018919;28;20037;-81
2021/12/16 05:56:42;;;;;;;11.82;7.53;;;6.40;94.20;;;;;;5039284;28;20040;-80
2021/12/16 05:59:08;;;;;;;11.13;7.35;;;6.40;94.20;;;;;;5043538;28;20123;-81
2021/12/16 06:01:36;;;;;;;17.08;8.15;;;6.40;94.20;;;;;;5054993;28;20048;-81
2021/12/16 06:04:01;;;;;;;16.92;8.50;;;6.40;94.20;;;;;;5047073;28;20110;-80
2021/12/16 06:06:27;;;;;;;16.20;8.32;;;6.40;94.20;;;;;;5041535;28;20033;-81
2021/12/16 06:08:54;;;;;;;10.60;7.03;;;6.40;94.30;;;;;;5058959;28;20653;-79
2021/12/16 06:11:22;;;;;;;13.27;8.48;;;6.40;94.30;;;;;;5024839;28;20046;-81
2021/12/16 06:14:04;;;;;;;12.82;7.63;;;6.40;94.30;;;;;;5045235;28;20050;-81
2021/12/16 06:27:28;;;;;;;13.60;7.60;;;6.40;94.20;;;;;;5038593;28;20090;-80
2021/12/16 06:29:54;;;;;;;13.32;8.40;;;6.40;94.20;;;;;;5052145;28;20087;-81
2021/12/16 06:32:20;;;;;;;14.20;8.02;;;6.40;94.30;;;;;;5066447;28;20047;-79
2021/12/16 06:34:45;;;;;;;14.43;8.85;;;6.40;94.30;;;;;;5031278;28;20148;-80
2021/12/16 06:37:11;;;;;;;14.00;8.63;;;6.40;94.30;;;;;;5021250;28;20404;-80
2021/12/16 06:39:36;;;;;;;12.52;7.90;;;6.40;94.30;;;;;;5033636;28;20126;-80
2021/12/16 06:42:05;;;;;;;14.80;7.97;;;6.40;94.60;;;;;;5013685;28;20094;-80
2021/12/16 06:44:37;;;;;;;13.75;7.10;;;6.40;94.30;;;;;;5036196;28;20479;-80
2021/12/16 06:47:08;;;;;;;14.43;7.97;;;6.30;94.20;;;;;;5058006;28;20036;-80
2021/12/16 06:49:36;;;;;;;13.10;7.28;;;6.30;94.20;;;;;;5021173;28;20044;-80
2021/12/16 06:52:05;;;;;;;13.63;7.70;;;6.30;94.20;;;;;;5062472;28;20036;-81
2021/12/16 06:54:38;;;;;;;15.27;7.80;;;6.30;94.20;;;;;;5033931;28;20406;-81
2021/12/16 06:59:37;;;;;;;12.10;7.60;;;6.30;94.20;;;;;;5033688;28;20040;-81
2021/12/16 07:02:17;;;;;;;13.88;8.30;;;6.30;94.20;;;;;;5051007;28;20632;-81
2021/12/16 07:04:45;;;;;;;13.63;7.05;;;6.30;94.30;;;;;;5034618;28;20116;-80
2021/12/16 07:07:11;;;;;;;13.35;8.07;;;6.30;94.30;;;;;;5071639;28;20051;-81
2021/12/16 07:09:37;;;;;;;15.50;7.97;;;6.30;94.30;;;;;;5039238;28;20037;-81
2021/12/16 07:12:03;;;;;;;15.18;8.63;;;6.30;94.30;;;;;;5032353;28;20032;-80
2021/12/16 07:14:36;;;;;;;13.82;8.38;;;6.30;94.30;;;;;;5030771;28;20039;-81
2021/12/16 07:17:04;;;;;;;13.75;7.70;;;6.30;94.30;;;;;;5053972;28;20044;-81
2021/12/16 07:19:30;;;;;;;15.52;7.85;;;6.30;94.30;;;;;;5034006;28;20064;-81
2021/12/16 07:21:55;;;;;;;15.23;7.85;;;6.30;94.30;;;;;;5038750;28;20471;-81
2021/12/16 07:24:21;;;;;;;16.83;8.48;;;6.30;94.30;;;;;;5024109;28;20115;-81
2021/12/16 07:26:47;;;;;;;12.38;6.85;;;6.30;94.30;;;;;;5033009;28;20044;-81
2021/12/16 07:29:12;;;;;;;13.60;8.32;;;6.30;94.30;;;;;;5044951;28;20055;-80
2021/12/16 07:31:39;;;;;;;14.05;8.77;;;6.30;94.30;;;;;;5049816;28;20043;-80
2021/12/16 07:34:06;;;;;;;16.70;9.80;;;6.30;94.30;;;;;;5054677;28;20041;-80
2021/12/16 07:36:33;;;;;;;14.95;9.48;;;6.30;94.30;;;;;;5039683;28;20045;-81
2021/12/16 07:38:59;;;;;;;13.90;8.82;;;6.30;94.30;;;;;;5042319;28;20031;-81
2021/12/16 07:41:31;;;;;;;13.18;8.25;;;6.30;94.30;;;;;;5035267;28;20056;-80
2021/12/16 07:44:09;;;;;;;12.35;8.10;;;6.40;94.40;;;;;;5038530;28;20637;-80
2021/12/16 07:46:46;;;;;;;14.73;8.38;;;6.30;94.30;;;;;;5037123;28;20041;-81
2021/12/16 07:49:13;;;;;;;15.30;8.45;;;6.40;94.40;;;;;;5042296;28;20041;-80
2021/12/16 07:51:39;;;;;;;14.60;8.15;;;6.40;94.40;;;;;;5033366;28;20037;-80
2021/12/16 07:54:04;;;;;;;19.10;9.52;;;6.40;94.40;;;;;;5024446;28;20036;-80
2021/12/16 07:56:30;;;;;;;16.77;8.88;;;6.40;94.40;;;;;;5030696;28;20075;-81
2021/12/16 07:58:56;;;;;;;14.07;9.98;;;6.30;94.30;;;;;;5037290;28;20123;-80
2021/12/16 08:01:22;;;;;;;13.68;7.65;;;6.40;94.40;;;;;;5024075;28;20102;-80
2021/12/16 08:03:47;;;;;;;12.38;8.10;;;6.40;94.40;;;;;;5013494;28;20448;-81
2021/12/16 08:06:18;;;;;;;14.88;9.57;;;6.40;94.40;;;;;;5015093;28;20973;-81
2021/12/16 08:08:44;;;;;;;23.60;14.65;;;6.40;94.40;;;;;;5029458;28;20041;-81
2021/12/16 08:11:09;;;;;;;19.33;11.73;;;6.40;94.40;;;;;;5044605;28;20041;-81
2021/12/16 08:13:35;;;;;;;13.43;7.78;;;6.40;94.40;;;;;;5042811;28;20032;-81
2021/12/16 08:16:01;;;;;;;13.45;7.85;;;6.40;94.40;;;;;;5027074;28;20039;-80
2021/12/16 08:18:27;;;;;;;14.88;8.75;;;6.40;94.40;;;;;;5037565;28;20041;-81
2021/12/16 08:20:53;;;;;;;18.73;9.65;;;6.40;94.40;;;;;;5050375;28;20552;-80
2021/12/16 08:23:18;;;;;;;16.77;9.35;;;6.40;94.40;;;;;;5059190;28;20041;-80
2021/12/16 08:25:44;;;;;;;19.85;12.73;;;6.40;94.40;;;;;;5038318;28;20040;-81
2021/12/16 08:28:10;;;;;;;17.58;11.73;;;6.40;94.50;;;;;;5046624;28;20040;-80
2021/12/16 08:30:41;;;;;;;15.55;9.13;;;6.50;94.50;;;;;;5035042;28;20033;-81
2021/12/16 08:33:10;;;;;;;17.15;10.18;;;6.50;94.50;;;;;;5052440;28;20037;-80
2021/12/16 08:35:40;;;;;;;17.35;9.60;;;6.50;94.50;;;;;;5044222;28;20451;-81
2021/12/16 08:38:07;;;;;;;13.68;8.13;;;6.50;94.50;;;;;;5056974;28;20027;-80
2021/12/16 08:40:32;;;;;;;16.52;10.07;;;6.50;94.50;;;;;;5028551;28;20029;-81
2021/12/16 08:42:58;;;;;;;16.38;10.90;;;6.50;94.50;;;;;;5054866;28;20043;-81
2021/12/16 08:45:27;;;;;;;19.60;12.65;;;6.60;94.50;;;;;;5028775;28;20020;-81
2021/12/16 08:47:53;;;;;;;18.90;11.40;;;6.60;94.50;;;;;;5058171;28;20033;-80
2021/12/16 08:50:20;;;;;;;20.90;13.73;;;6.60;94.50;;;;;;5039306;28;20041;-80
2021/12/16 08:52:46;;;;;;;24.23;14.52;;;6.60;94.50;;;;;;5056873;28;20038;-80
2021/12/16 08:55:11;;;;;;;14.30;9.43;;;6.70;94.60;;;;;;5041041;28;20439;-81
2021/12/16 08:57:37;;;;;;;24.48;16.27;;;6.70;94.50;;;;;;5033122;28;20045;-81
2021/12/16 09:00:07;;;;;;;22.77;13.65;;;6.70;94.50;;;;;;5027428;28;20036;-81
2021/12/16 09:02:32;;;;;;;24.77;13.95;;;6.70;94.50;;;;;;5038752;28;20033;-81
2021/12/16 09:04:58;;;;;;;22.42;12.95;;;6.70;94.50;;;;;;5023775;28;20343;-81
2021/12/16 09:07:23;;;;;;;20.48;11.65;;;6.80;94.50;;;;;;5020030;28;20129;-81
2021/12/16 09:09:49;;;;;;;22.55;13.50;;;6.80;94.50;;;;;;5050348;28;20104;-81
2021/12/16 09:14:57;;;;;;;17.02;10.43;;;6.80;94.50;;;;;;5031367;28;20448;-81
2021/12/16 09:17:22;;;;;;;25.15;12.65;;;6.90;94.50;;;;;;5040775;28;20145;-81
2021/12/16 09:19:49;;;;;;;21.52;12.05;;;6.90;94.50;;;;;;5030140;28;20727;-80
2021/12/16 09:22:18;;;;;;;18.17;10.60;;;6.90;94.50;;;;;;5044143;28;20111;-80
2021/12/16 09:24:44;;;;;;;21.15;12.30;;;6.90;94.50;;;;;;5048151;28;20036;-80
2021/12/16 09:27:10;;;;;;;20.30;12.90;;;6.90;94.50;;;;;;5026523;28;20044;-80
2021/12/16 09:29:35;;;;;;;20.73;12.10;;;6.90;94.40;;;;;;5030379;28;20108;-80
2021/12/16 09:32:03;;;;;;;23.02;14.18;;;6.90;94.40;;;;;;5041393;28;20049;-80
2021/12/16 09:34:30;;;;;;;16.50;10.65;;;6.90;94.40;;;;;;5061351;28;20045;-80
2021/12/16 09:36:55;;;;;;;22.63;13.57;;;6.90;94.50;;;;;;5018574;28;20048;-80
2021/12/16 09:39:24;;;;;;;16.95;10.43;;;7.00;94.50;;;;;;5061879;28;20048;-80
2021/12/16 09:41:50;;;;;;;25.30;12.98;;;7.10;94.50;;;;;;5082698;28;20083;-80
2021/12/16 09:44:16;;;;;;;23.17;12.93;;;7.10;94.50;;;;;;5061148;28;20047;-80
2021/12/16 09:46:44;;;;;;;18.55;11.32;;;7.30;94.60;;;;;;5050851;28;20032;-80
2021/12/16 09:49:10;;;;;;;21.88;12.15;;;7.40;94.60;;;;;;5036823;28;20066;-80
2021/12/16 09:51:36;;;;;;;17.08;10.70;;;7.50;94.60;;;;;;5058223;28;20421;-80
2021/12/16 09:54:06;;;;;;;18.50;10.93;;;7.60;94.60;;;;;;5024367;28;20071;-80
2021/12/16 09:56:32;;;;;;;17.13;9.90;;;7.60;94.60;;;;;;5045628;28;20041;-80
2021/12/16 09:58:58;;;;;;;18.10;10.82;;;7.80;94.60;;;;;;5061114;28;20422;-80
2021/12/16 10:01:24;;;;;;;20.95;10.25;;;7.80;94.50;;;;;;5041493;28;20468;-80
2021/12/16 10:03:52;;;;;;;15.40;8.82;;;7.90;94.50;;;;;;5052227;28;20041;-80
2021/12/16 10:06:18;;;;;;;17.25;9.30;;;8.00;94.50;;;;;;5050313;28;20120;-80
2021/12/16 10:08:43;;;;;;;17.02;9.70;;;8.10;94.40;;;;;;5037823;28;20056;-81
2021/12/16 10:11:09;;;;;;;16.05;9.57;;;8.10;94.40;;;;;;5050652;28;20056;-81
2021/12/16 10:19:12;;;;;;;16.42;10.23;;;8.40;94.40;;;;;;5076476;28;20039;-81
2021/12/16 10:21:41;;;;;;;20.33;11.60;;;8.50;94.40;;;;;;5062874;28;20040;-81
2021/12/16 10:24:19;;;;;;;22.58;11.52;;;8.60;94.40;;;;;;5042841;28;20162;-81
2021/12/16 10:26:44;;;;;;;18.98;11.65;;;8.70;94.40;;;;;;5019309;28;20035;-81
2021/12/16 10:29:10;;;;;;;17.05;10.48;;;8.80;94.30;;;;;;5032384;28;20040;-81
2021/12/16 10:31:36;;;;;;;19.25;11.77;;;8.90;94.30;;;;;;5039408;28;20040;-81
2021/12/16 10:34:07;;;;;;;21.65;12.00;;;9.10;94.30;;;;;;5077074;28;20099;-81
2021/12/16 10:36:39;;;;;;;18.42;11.45;;;9.20;94.20;;;;;;5029530;28;20045;-81
2021/12/16 10:39:15;;;;;;;19.65;11.55;;;9.30;94.20;;;;;;5045061;28;20394;-81
2021/12/16 10:41:43;;;;;;;19.98;11.10;;;9.40;94.00;;;;;;5061089;28;20479;-81
2021/12/16 10:44:08;;;;;;;18.85;11.35;;;9.50;93.90;;;;;;5053822;28;20043;-81
2021/12/16 10:46:37;;;;;;;18.65;12.23;;;9.50;93.90;;;;;;5063045;28;20116;-81
2021/12/16 10:49:11;;;;;;;16.60;10.60;;;9.60;93.80;;;;;;5057861;28;20037;-81
2021/12/16 10:51:42;;;;;;;16.55;10.23;;;9.60;93.70;;;;;;5054921;28;20430;-81
2021/12/16 10:54:23;;;;;;;18.90;11.20;;;9.70;93.70;;;;;;5043299;28;20055;-81
2021/12/16 10:56:56;;;;;;;18.42;10.68;;;9.70;93.70;;;;;;5073487;28;20117;-81
2021/12/16 10:59:25;;;;;;;16.50;10.57;;;9.70;93.60;;;;;;5071789;28;20043;-81
2021/12/16 11:01:59;;;;;;;12.00;8.27;;;9.80;93.60;;;;;;5073471;28;20045;-81
2021/12/16 11:04:27;;;;;;;16.60;10.55;;;9.80;93.60;;;;;;5066624;28;22068;-81
2021/12/16 11:06:56;;;;;;;14.07;9.18;;;9.80;93.60;;;;;;5069720;28;20094;-81
2021/12/16 11:09:27;;;;;;;15.95;9.75;;;9.80;93.50;;;;;;5037952;28;20040;-80
2021/12/16 11:12:09;;;;;;;12.90;9.05;;;9.90;93.50;;;;;;5064616;28;20028;-80
2021/12/16 11:14:36;;;;;;;13.43;8.85;;;9.90;93.40;;;;;;5040301;28;20032;-80
2021/12/16 11:17:04;;;;;;;17.38;9.70;;;10.00;93.40;;;;;;5048965;28;20451;-80
2021/12/16 11:19:46;;;;;;;14.52;9.13;;;10.00;93.40;;;;;;5022505;28;20526;-81
2021/12/16 11:22:14;;;;;;;14.48;8.27;;;10.10;93.40;;;;;;5066783;28;20040;-81
2021/12/16 11:24:40;;;;;;;15.63;8.75;;;10.10;93.40;;;;;;5073752;28;20082;-81
2021/12/16 11:27:30;;;;;;;19.73;9.55;;;10.10;93.30;;;;;;5025231;28;20143;-81
2021/12/16 11:29:57;;;;;;;14.80;9.48;;;10.10;93.10;;;;;;5036771;28;20048;-81
2021/12/16 11:32:42;;;;;;;14.25;8.35;;;10.10;93.10;;;;;;5046735;28;20048;-80
2021/12/16 11:35:23;;;;;;;14.35;8.20;;;10.20;93.00;;;;;;5060401;28;20107;-81
2021/12/16 11:37:49;;;;;;;15.80;9.88;;;10.20;93.00;;;;;;5068509;28;20502;-81
2021/12/16 11:40:15;;;;;;;18.08;9.52;;;10.20;93.10;;;;;;5039439;28;20036;-80
2021/12/16 11:42:41;;;;;;;18.15;9.48;;;10.20;93.00;;;;;;5051820;28;20123;-80
2021/12/16 11:45:07;;;;;;;14.07;9.23;;;10.20;92.90;;;;;;5039392;28;20110;-81
2021/12/16 11:47:32;;;;;;;11.65;7.57;;;10.20;92.90;;;;;;5034488;28;20037;-81
2021/12/16 11:50:01;;;;;;;15.23;9.88;;;10.20;92.80;;;;;;5046200;28;20133;-81
2021/12/16 11:52:28;;;;;;;17.45;9.77;;;10.30;92.80;;;;;;5049558;28;20115;-80
2021/12/16 11:55:03;;;;;;;17.33;10.20;;;10.30;92.80;;;;;;5041097;28;20129;-81
2021/12/16 11:57:33;;;;;;;15.27;9.25;;;10.30;92.70;;;;;;5062601;28;20044;-81
2021/12/16 12:00:08;;;;;;;12.65;7.93;;;10.30;92.70;;;;;;5017135;28;20314;-81
2021/12/16 12:02:36;;;;;;;13.52;7.88;;;10.30;92.70;;;;;;5038549;28;20028;-81
2021/12/16 12:05:42;;;;;;;14.50;9.02;;;10.30;92.70;;;;;;5052684;28;20115;-80
2021/12/16 12:08:15;;;;;;;12.85;8.30;;;10.40;92.70;;;;;;5021767;28;20064;-79
2021/12/16 12:10:48;;;;;;;15.82;7.25;;;10.40;92.60;;;;;;5062848;28;20075;-79
2021/12/16 12:13:15;;;;;;;13.60;7.95;;;10.40;92.60;;;;;;5001992;28;20120;-79
2021/12/16 12:15:56;;;;;;;12.38;8.65;;;10.40;92.60;;;;;;5055288;28;20102;-79
2021/12/16 12:18:33;;;;;;;16.67;10.03;;;10.40;92.50;;;;;;5061788;28;20230;-79
2021/12/16 12:21:48;;;;;;;13.30;8.30;;;10.50;92.40;;;;;;5062218;28;20331;-79
2021/12/16 12:24:26;;;;;;;13.23;9.40;;;10.50;92.30;;;;;;4966228;28;20027;-79
2021/12/16 12:26:54;;;;;;;13.77;8.45;;;10.50;92.30;;;;;;5064172;28;20119;-79
2021/12/16 12:29:23;;;;;;;12.57;7.65;;;10.50;92.30;;;;;;5036812;28;20072;-79
2021/12/16 12:31:54;;;;;;;12.60;7.63;;;10.50;92.30;;;;;;5021568;28;20048;-79
2021/12/16 12:34:20;;;;;;;13.10;8.80;;;10.50;92.30;;;;;;5023744;28;20597;-80
2021/12/16 12:36:47;;;;;;;19.98;10.40;;;10.60;92.30;;;;;;5048885;28;20350;-79
2021/12/16 12:39:15;;;;;;;17.00;10.20;;;10.60;92.20;;;;;;5014859;28;20119;-79
2021/12/16 12:41:42;;;;;;;16.70;10.02;;;10.60;92.10;;;;;;5050958;28;20071;-79
2021/12/16 12:44:07;;;;;;;15.45;9.70;;;10.60;92.10;;;;;;5063586;28;20039;-79
2021/12/16 12:46:35;;;;;;;13.20;8.35;;;10.60;92.00;;;;;;5074746;28;20036;-79
2021/12/16 12:49:03;;;;;;;12.80;7.75;;;10.60;92.00;;;;;;5033291;28;20062;-79
2021/12/16 12:51:36;;;;;;;12.57;7.50;;;10.70;91.90;;;;;;5055186;28;20051;-79
2021/12/16 12:54:26;;;;;;;10.38;7.00;;;10.70;91.80;;;;;;5039575;28;20062;-79
2021/12/16 12:56:53;;;;;;;13.18;7.60;;;10.70;91.70;;;;;;5061813;28;20071;-79
2021/12/16 12:59:19;;;;;;;10.25;6.15;;;10.70;91.70;;;;;;5044703;28;20037;-80
2021/12/16 13:01:48;;;;;;;9.75;7.10;;;10.80;91.60;;;;;;5025932;28;20041;-80
2021/12/16 13:04:18;;;;;;;10.25;6.55;;;10.80;91.50;;;;;;5059806;28;20033;-80
2021/12/16 13:07:08;;;;;;;11.57;6.97;;;10.80;91.40;;;;;;5076868;28;20051;-80
2021/12/16 13:09:41;;;;;;;11.98;6.70;;;10.80;91.20;;;;;;5017204;28;20380;-80
2021/12/16 13:12:47;;;;;;;10.60;7.00;;;10.80;91.30;;;;;;5049881;28;20158;-80
2021/12/16 13:15:50;;;;;;;15.52;8.85;;;10.80;91.10;;;;;;5060149;28;20063;-80
2021/12/16 13:23:59;;;;;;;14.15;10.35;;;10.80;91.00;;;;;;5046156;28;20044;-80
2021/12/16 13:26:41;;;;;;;10.63;7.65;;;10.80;91.00;;;;;;5040044;28;20110;-79
2021/12/16 13:34:37;;;;;;;12.63;9.13;;;10.80;90.90;;;;;;5068884;28;20045;-79
2021/12/16 13:37:31;;;;;;;13.45;8.73;;;10.80;90.80;;;;;;5003818;28;20093;-79
2021/12/16 13:40:22;;;;;;;12.77;7.90;;;10.90;90.70;;;;;;5064012;28;20039;-79
2021/12/16 13:43:02;;;;;;;17.38;9.57;;;10.80;90.70;;;;;;5042449;28;20051;-80
2021/12/16 13:45:37;;;;;;;13.45;9.02;;;10.90;90.70;;;;;;5022928;28;20028;-80
2021/12/16 13:48:28;;;;;;;16.08;9.60;;;10.90;90.70;;;;;;5058231;28;20296;-83
2021/12/16 14:02:38;;;;;;;11.80;6.90;;;10.90;90.70;;;;;;5073052;28;20056;-79
2021/12/16 14:07:58;;;;;;;11.88;6.68;;;10.80;90.50;;;;;;5046347;28;20376;-79
2021/12/16 14:10:43;;;;;;;10.38;7.03;;;10.80;90.70;;;;;;5070007;28;20055;-79
2021/12/16 14:16:13;;;;;;;18.23;7.82;;;10.80;90.30;;;;;;5057476;28;20036;-80
2021/12/16 14:25:17;;;;;;;13.23;7.15;;;10.60;90.20;;;;;;5035468;28;20052;-80
2021/12/16 14:34:45;;;;;;;14.35;8.25;;;10.50;90.30;;;;;;5054109;28;20081;-81
2021/12/16 14:47:13;;;;;;;15.52;9.35;;;10.40;90.20;;;;;;5067156;28;20040;-83
2021/12/16 14:49:43;;;;;;;13.82;8.40;;;10.40;90.20;;;;;;5057335;28;20029;-82
2021/12/16 14:52:28;;;;;;;12.00;7.47;;;10.40;90.30;;;;;;5041841;28;20063;-82
2021/12/16 14:55:06;;;;;;;12.38;7.63;;;10.30;90.20;;;;;;5082129;28;20289;-83
2021/12/16 14:57:36;;;;;;;15.98;8.90;;;10.30;90.30;;;;;;5042492;28;20594;-83
2021/12/16 15:00:15;;;;;;;14.32;8.10;;;10.30;90.30;;;;;;5023237;28;20066;-81
2021/12/16 15:02:42;;;;;;;12.55;7.70;;;10.30;90.20;;;;;;5056659;28;20029;-83
2021/12/16 15:05:39;;;;;;;12.45;7.75;;;10.20;90.30;;;;;;5041506;28;20070;-82
2021/12/16 15:08:20;;;;;;;11.65;7.13;;;10.20;90.30;;;;;;5064897;28;20119;-82
2021/12/16 15:10:45;;;;;;;13.38;7.82;;;10.20;90.30;;;;;;5033440;28;20126;-82
2021/12/16 15:13:20;;;;;;;9.77;6.18;;;10.10;90.30;;;;;;5033559;28;20043;-82
2021/12/16 15:16:04;;;;;;;12.52;7.00;;;10.10;90.30;;;;;;5052818;28;20029;-82
2021/12/16 15:38:16;;;;;;;11.98;6.32;;;9.80;90.50;;;;;;5045314;28;20146;-82
2021/12/16 15:42:43;;;;;;;11.48;6.60;;;9.70;90.50;;;;;;5042808;28;20029;-82
2021/12/16 15:43:44;;;;;;;12.27;7.03;;;9.70;90.60;;;;;;5057228;28;20050;-82
2021/12/16 15:46:10;;;;;;;12.00;6.75;;;9.60;90.60;;;;;;5050585;28;20582;-82
2021/12/16 15:48:35;;;;;;;10.40;6.75;;;9.60;90.60;;;;;;5033806;28;20024;-82
2021/12/16 15:51:07;;;;;;;12.15;7.05;;;9.50;90.60;;;;;;5043592;28;20387;-83
2021/12/16 15:53:36;;;;;;;15.40;8.23;;;9.50;90.60;;;;;;5037187;28;20104;-83
2021/12/16 15:56:16;;;;;;;12.95;7.45;;;9.50;90.60;;;;;;5034583;28;20025;-82
2021/12/16 15:58:50;;;;;;;16.40;8.15;;;9.50;90.70;;;;;;5051311;28;20084;-83
2021/12/16 16:01:21;;;;;;;13.43;7.82;;;9.40;90.70;;;;;;5029871;28;20056;-83
2021/12/16 16:03:47;;;;;;;12.88;7.45;;;9.40;90.70;;;;;;5035923;28;20465;-84
2021/12/16 16:06:13;;;;;;;13.48;7.53;;;9.30;90.80;;;;;;5076220;28;20046;-83
2021/12/16 16:08:46;;;;;;;11.85;7.00;;;9.30;90.80;;;;;;5038106;28;20032;-83
2021/12/16 16:11:14;;;;;;;16.23;7.43;;;9.30;91.00;;;;;;5019095;28;20344;-83
2021/12/16 16:13:44;;;;;;;14.43;7.60;;;9.20;90.90;;;;;;5045233;28;20112;-83
2021/12/16 16:16:12;;;;;;;15.25;7.88;;;9.20;90.90;;;;;;5022281;28;20044;-82
2021/12/16 16:18:41;;;;;;;13.35;7.28;;;9.20;90.90;;;;;;5017310;28;20035;-82
2021/12/16 16:21:09;;;;;;;14.68;8.05;;;9.20;91.00;;;;;;5020631;28;20123;-80
2021/12/16 16:23:36;;;;;;;12.07;7.30;;;9.20;91.00;;;;;;5058721;28;20040;-81
2021/12/16 16:26:10;;;;;;;13.38;8.10;;;9.10;91.00;;;;;;5038163;28;20040;-81